sensor_id;sensor_type;location;lat;lon;timestamp;pressure;altitude;pressure_sealevel;temperature;humidity
72118;BME280;59992;47.490;8.736;2023-05-14T00:01:31;96509.58;;;8.97;88.14
72118;BME280;59992;47.490;8.736;2023-05-14T00:04:23;96506.39;;;8.92;88.93
72118;BME280;59992;47.490;8.736;2023-05-14T00:07:13;96509.61;;;8.86;90.00
72118;BME280;59992;47.490;8.736;2023-05-14T00:10:05;96511.54;;;8.81;90.90
72118;BME280;59992;47.490;8.736;2023-05-14T00:12:56;96512.92;;;8.78;88.76
72118;BME280;59992;47.490;8.736;2023-05-14T00:15:46;96507.30;;;8.76;89.06
72118;BME280;59992;47.490;8.736;2023-05-14T00:18:36;96508.20;;;8.71;90.12
72118;BME280;59992;47.490;8.736;2023-05-14T00:21:26;96508.41;;;8.67;88.97
72118;BME280;59992;47.490;8.736;2023-05-14T00:24:16;96503.30;;;8.65;89.22
72118;BME280;59992;47.490;8.736;2023-05-14T00:27:06;96503.54;;;8.65;88.50
72118;BME280;59992;47.490;8.736;2023-05-14T00:29:57;96503.88;;;8.64;88.65
72118;BME280;59992;47.490;8.736;2023-05-14T00:32:48;96501.45;;;8.63;89.21
72118;BME280;59992;47.490;8.736;2023-05-14T00:35:38;96503.04;;;8.62;88.54
72118;BME280;59992;47.490;8.736;2023-05-14T00:38:29;96500.45;;;8.61;89.78
72118;BME280;59992;47.490;8.736;2023-05-14T00:41:19;96494.77;;;8.61;90.73
72118;BME280;59992;47.490;8.736;2023-05-14T00:44:10;96494.80;;;8.62;88.78
72118;BME280;59992;47.490;8.736;2023-05-14T00:47:00;96494.30;;;8.64;90.93
72118;BME280;59992;47.490;8.736;2023-05-14T00:49:51;96494.32;;;8.65;93.70
72118;BME280;59992;47.490;8.736;2023-05-14T00:52:41;96497.59;;;8.69;92.64
72118;BME280;59992;47.490;8.736;2023-05-14T00:55:31;96491.17;;;8.73;94.50
72118;BME280;59992;47.490;8.736;2023-05-14T00:58:23;96489.97;;;8.78;94.88
72118;BME280;59992;47.490;8.736;2023-05-14T01:01:14;96487.55;;;8.82;92.71
72118;BME280;59992;47.490;8.736;2023-05-14T01:04:05;96487.20;;;8.83;91.72
72118;BME280;59992;47.490;8.736;2023-05-14T01:07:01;96489.77;;;8.83;92.56
72118;BME280;59992;47.490;8.736;2023-05-14T01:10:07;96485.24;;;8.83;93.84
72118;BME280;59992;47.490;8.736;2023-05-14T01:13:03;96479.30;;;8.84;93.04
72118;BME280;59992;47.490;8.736;2023-05-14T01:15:58;96481.32;;;8.84;91.89
72118;BME280;59992;47.490;8.736;2023-05-14T01:18:50;96481.05;;;8.82;92.48
72118;BME280;59992;47.490;8.736;2023-05-14T01:21:43;96485.92;;;8.84;95.38
72118;BME280;59992;47.490;8.736;2023-05-14T01:24:33;96482.61;;;8.88;95.24
72118;BME280;59992;47.490;8.736;2023-05-14T01:27:27;96483.97;;;8.93;93.67
72118;BME280;59992;47.490;8.736;2023-05-14T01:30:24;96483.27;;;8.96;93.43
72118;BME280;59992;47.490;8.736;2023-05-14T01:33:19;96482.29;;;9.00;95.28
72118;BME280;59992;47.490;8.736;2023-05-14T01:36:11;96481.29;;;9.07;95.83
72118;BME280;59992;47.490;8.736;2023-05-14T01:39:03;96476.27;;;9.15;94.98
72118;BME280;59992;47.490;8.736;2023-05-14T01:41:57;96476.75;;;9.21;93.15
72118;BME280;59992;47.490;8.736;2023-05-14T01:44:48;96476.21;;;9.25;93.10
72118;BME280;59992;47.490;8.736;2023-05-14T01:47:39;96474.52;;;9.28;93.08
72118;BME280;59992;47.490;8.736;2023-05-14T01:50:29;96473.68;;;9.32;91.58
72118;BME280;59992;47.490;8.736;2023-05-14T01:53:19;96470.95;;;9.35;92.39
72118;BME280;59992;47.490;8.736;2023-05-14T01:56:09;96466.59;;;9.37;93.87
72118;BME280;59992;47.490;8.736;2023-05-14T01:59:00;96465.66;;;9.41;94.77
72118;BME280;59992;47.490;8.736;2023-05-14T02:01:50;96469.54;;;9.47;92.87
72118;BME280;59992;47.490;8.736;2023-05-14T02:04:40;96472.64;;;9.51;90.99
72118;BME280;59992;47.490;8.736;2023-05-14T02:07:30;96473.81;;;9.54;90.87
72118;BME280;59992;47.490;8.736;2023-05-14T02:10:20;96471.38;;;9.58;91.20
72118;BME280;59992;47.490;8.736;2023-05-14T02:13:10;96468.48;;;9.61;91.95
72118;BME280;59992;47.490;8.736;2023-05-14T02:16:01;96468.41;;;9.62;93.10
72118;BME280;59992;47.490;8.736;2023-05-14T02:18:51;96461.81;;;9.66;92.41
72118;BME280;59992;47.490;8.736;2023-05-14T02:21:41;96463.23;;;9.69;92.14
72118;BME280;59992;47.490;8.736;2023-05-14T02:24:31;96455.93;;;9.72;91.88
72118;BME280;59992;47.490;8.736;2023-05-14T02:27:21;96454.95;;;9.72;93.18
72118;BME280;59992;47.490;8.736;2023-05-14T02:30:12;96452.34;;;9.74;92.92
72118;BME280;59992;47.490;8.736;2023-05-14T02:33:03;96451.30;;;9.76;92.42
72118;BME280;59992;47.490;8.736;2023-05-14T02:35:52;96448.80;;;9.80;91.65
72118;BME280;59992;47.490;8.736;2023-05-14T02:38:43;96448.30;;;9.83;92.00
72118;BME280;59992;47.490;8.736;2023-05-14T02:41:33;96442.30;;;9.86;92.14
72118;BME280;59992;47.490;8.736;2023-05-14T02:44:23;96443.98;;;9.88;93.18
72118;BME280;59992;47.490;8.736;2023-05-14T02:47:13;96442.00;;;9.92;92.14
72118;BME280;59992;47.490;8.736;2023-05-14T02:50:05;96441.63;;;9.98;91.74
72118;BME280;59992;47.490;8.736;2023-05-14T02:52:56;96441.42;;;10.00;91.52
72118;BME280;59992;47.490;8.736;2023-05-14T02:55:46;96437.58;;;10.01;91.26
72118;BME280;59992;47.490;8.736;2023-05-14T02:58:36;96434.83;;;9.99;91.83
72118;BME280;59992;47.490;8.736;2023-05-14T03:01:26;96432.84;;;9.98;91.58
72118;BME280;59992;47.490;8.736;2023-05-14T03:04:16;96434.14;;;9.98;91.41
72118;BME280;59992;47.490;8.736;2023-05-14T03:07:07;96432.23;;;9.97;91.39
72118;BME280;59992;47.490;8.736;2023-05-14T03:09:57;96434.40;;;9.96;91.97
72118;BME280;59992;47.490;8.736;2023-05-14T03:12:49;96430.90;;;9.95;92.32
72118;BME280;59992;47.490;8.736;2023-05-14T03:15:39;96430.89;;;9.94;93.12
72118;BME280;59992;47.490;8.736;2023-05-14T03:18:29;96431.52;;;9.96;92.82
72118;BME280;59992;47.490;8.736;2023-05-14T03:21:21;96433.74;;;9.97;92.85
72118;BME280;59992;47.490;8.736;2023-05-14T03:24:12;96434.76;;;9.99;92.19
72118;BME280;59992;47.490;8.736;2023-05-14T03:27:02;96433.50;;;10.02;91.74
72118;BME280;59992;47.490;8.736;2023-05-14T03:29:54;96432.45;;;10.03;91.36
72118;BME280;59992;47.490;8.736;2023-05-14T03:32:45;96431.77;;;10.02;92.29
72118;BME280;59992;47.490;8.736;2023-05-14T03:35:35;96430.25;;;10.02;92.87
72118;BME280;59992;47.490;8.736;2023-05-14T03:38:25;96429.38;;;10.04;93.57
72118;BME280;59992;47.490;8.736;2023-05-14T03:41:15;96427.35;;;10.06;92.32
72118;BME280;59992;47.490;8.736;2023-05-14T03:44:07;96430.89;;;10.10;91.19
72118;BME280;59992;47.490;8.736;2023-05-14T03:46:58;96434.20;;;10.13;90.87
72118;BME280;59992;47.490;8.736;2023-05-14T03:49:48;96434.54;;;10.15;90.54
72118;BME280;59992;47.490;8.736;2023-05-14T03:52:39;96430.01;;;10.16;91.49
72118;BME280;59992;47.490;8.736;2023-05-14T03:55:29;96428.95;;;10.16;91.06
72118;BME280;59992;47.490;8.736;2023-05-14T03:58:19;96422.42;;;10.15;91.02
72118;BME280;59992;47.490;8.736;2023-05-14T04:01:10;96413.79;;;10.14;90.95
72118;BME280;59992;47.490;8.736;2023-05-14T04:04:00;96418.23;;;10.13;91.99
72118;BME280;59992;47.490;8.736;2023-05-14T04:06:50;96422.18;;;10.15;91.99
72118;BME280;59992;47.490;8.736;2023-05-14T04:09:41;96423.09;;;10.15;91.41
72118;BME280;59992;47.490;8.736;2023-05-14T04:12:31;96429.30;;;10.15;90.64
72118;BME280;59992;47.490;8.736;2023-05-14T04:15:21;96433.23;;;10.14;90.63
72118;BME280;59992;47.490;8.736;2023-05-14T04:18:12;96428.00;;;10.09;91.18
72118;BME280;59992;47.490;8.736;2023-05-14T04:21:02;96424.80;;;10.07;91.13
72118;BME280;59992;47.490;8.736;2023-05-14T04:23:52;96421.77;;;10.07;91.09
72118;BME280;59992;47.490;8.736;2023-05-14T04:26:42;96428.09;;;10.10;90.49
72118;BME280;59992;47.490;8.736;2023-05-14T04:29:33;96426.31;;;10.12;90.96
72118;BME280;59992;47.490;8.736;2023-05-14T04:32:23;96428.25;;;10.16;90.65
72118;BME280;59992;47.490;8.736;2023-05-14T04:35:13;96430.03;;;10.19;91.27
72118;BME280;59992;47.490;8.736;2023-05-14T04:38:04;96426.55;;;10.25;91.24
72118;BME280;59992;47.490;8.736;2023-05-14T04:40:55;96426.11;;;10.32;90.45
72118;BME280;59992;47.490;8.736;2023-05-14T04:43:45;96430.88;;;10.39;90.73
72118;BME280;59992;47.490;8.736;2023-05-14T04:46:35;96436.07;;;10.43;92.50
72118;BME280;59992;47.490;8.736;2023-05-14T04:49:26;96433.41;;;10.49;91.39
72118;BME280;59992;47.490;8.736;2023-05-14T04:52:16;96436.83;;;10.56;90.71
72118;BME280;59992;47.490;8.736;2023-05-14T04:55:08;96437.72;;;10.62;90.64
72118;BME280;59992;47.490;8.736;2023-05-14T04:57:58;96435.61;;;10.69;91.21
72118;BME280;59992;47.490;8.736;2023-05-14T05:00:48;96437.32;;;10.74;91.20
72118;BME280;59992;47.490;8.736;2023-05-14T05:03:38;96440.27;;;10.82;90.16
72118;BME280;59992;47.490;8.736;2023-05-14T05:06:29;96438.96;;;10.86;90.12
72118;BME280;59992;47.490;8.736;2023-05-14T05:09:19;96444.48;;;10.94;90.02
72118;BME280;59992;47.490;8.736;2023-05-14T05:12:10;96444.63;;;11.00;90.18
72118;BME280;59992;47.490;8.736;2023-05-14T05:15:01;96442.69;;;11.05;89.60
72118;BME280;59992;47.490;8.736;2023-05-14T05:17:51;96442.27;;;11.10;89.15
72118;BME280;59992;47.490;8.736;2023-05-14T05:20:42;96447.60;;;11.12;89.70
72118;BME280;59992;47.490;8.736;2023-05-14T05:23:32;96451.42;;;11.15;90.27
72118;BME280;59992;47.490;8.736;2023-05-14T05:26:23;96445.55;;;11.19;89.60
72118;BME280;59992;47.490;8.736;2023-05-14T05:29:14;96446.27;;;11.23;88.78
72118;BME280;59992;47.490;8.736;2023-05-14T05:32:05;96437.95;;;11.27;88.52
72118;BME280;59992;47.490;8.736;2023-05-14T05:34:56;96443.49;;;11.37;88.07
72118;BME280;59992;47.490;8.736;2023-05-14T05:37:46;96443.29;;;11.40;87.43
72118;BME280;59992;47.490;8.736;2023-05-14T05:40:36;96447.02;;;11.43;88.21
72118;BME280;59992;47.490;8.736;2023-05-14T05:43:27;96441.59;;;11.46;88.67
72118;BME280;59992;47.490;8.736;2023-05-14T05:46:17;96441.70;;;11.50;87.84
72118;BME280;59992;47.490;8.736;2023-05-14T05:49:07;96443.09;;;11.53;88.33
72118;BME280;59992;47.490;8.736;2023-05-14T05:51:57;96440.62;;;11.56;88.23
72118;BME280;59992;47.490;8.736;2023-05-14T05:54:47;96448.42;;;11.57;87.69
72118;BME280;59992;47.490;8.736;2023-05-14T05:57:38;96442.90;;;11.59;86.79
72118;BME280;59992;47.490;8.736;2023-05-14T06:00:28;96447.17;;;11.63;87.07
72118;BME280;59992;47.490;8.736;2023-05-14T06:03:19;96444.77;;;11.65;86.16
72118;BME280;59992;47.490;8.736;2023-05-14T06:06:10;96447.44;;;11.65;86.93
72118;BME280;59992;47.490;8.736;2023-05-14T06:09:00;96446.80;;;11.69;87.17
72118;BME280;59992;47.490;8.736;2023-05-14T06:11:51;96446.05;;;11.72;87.88
72118;BME280;59992;47.490;8.736;2023-05-14T06:14:41;96442.91;;;11.77;87.53
72118;BME280;59992;47.490;8.736;2023-05-14T06:17:32;96442.88;;;11.86;87.33
72118;BME280;59992;47.490;8.736;2023-05-14T06:20:22;96443.60;;;11.93;86.86
72118;BME280;59992;47.490;8.736;2023-05-14T06:23:13;96446.50;;;11.96;87.16
72118;BME280;59992;47.490;8.736;2023-05-14T06:26:03;96446.06;;;11.99;87.27
72118;BME280;59992;47.490;8.736;2023-05-14T06:28:54;96447.96;;;11.99;87.65
72118;BME280;59992;47.490;8.736;2023-05-14T06:31:45;96449.87;;;12.01;88.11
72118;BME280;59992;47.490;8.736;2023-05-14T06:34:36;96449.04;;;12.01;87.78
72118;BME280;59992;47.490;8.736;2023-05-14T06:37:26;96452.05;;;11.99;87.68
72118;BME280;59992;47.490;8.736;2023-05-14T06:40:17;96449.35;;;12.02;87.81
72118;BME280;59992;47.490;8.736;2023-05-14T06:43:08;96452.23;;;12.04;87.47
72118;BME280;59992;47.490;8.736;2023-05-14T06:45:58;96448.73;;;12.14;87.48
72118;BME280;59992;47.490;8.736;2023-05-14T06:48:49;96450.82;;;12.22;88.47
72118;BME280;59992;47.490;8.736;2023-05-14T06:51:39;96448.45;;;12.34;88.25
72118;BME280;59992;47.490;8.736;2023-05-14T06:54:29;96447.70;;;12.41;87.58
72118;BME280;59992;47.490;8.736;2023-05-14T06:57:20;96446.31;;;12.53;88.02
72118;BME280;59992;47.490;8.736;2023-05-14T07:00:12;96450.83;;;12.64;87.18
72118;BME280;59992;47.490;8.736;2023-05-14T07:03:03;96450.52;;;12.66;86.69
72118;BME280;59992;47.490;8.736;2023-05-14T07:05:54;96446.06;;;12.73;86.42
72118;BME280;59992;47.490;8.736;2023-05-14T07:08:44;96448.13;;;12.77;86.50
72118;BME280;59992;47.490;8.736;2023-05-14T07:11:34;96447.59;;;12.81;86.51
72118;BME280;59992;47.490;8.736;2023-05-14T07:14:25;96445.17;;;12.84;85.15
72118;BME280;59992;47.490;8.736;2023-05-14T07:17:15;96447.92;;;12.86;85.95
72118;BME280;59992;47.490;8.736;2023-05-14T07:20:07;96443.84;;;12.93;86.12
72118;BME280;59992;47.490;8.736;2023-05-14T07:22:57;96437.68;;;12.99;85.32
72118;BME280;59992;47.490;8.736;2023-05-14T07:25:47;96440.27;;;12.98;85.97
72118;BME280;59992;47.490;8.736;2023-05-14T07:28:38;96441.18;;;12.98;85.70
72118;BME280;59992;47.490;8.736;2023-05-14T07:31:28;96432.89;;;12.97;87.37
72118;BME280;59992;47.490;8.736;2023-05-14T07:34:18;96429.70;;;13.00;87.03
72118;BME280;59992;47.490;8.736;2023-05-14T07:37:09;96430.17;;;13.04;85.65
72118;BME280;59992;47.490;8.736;2023-05-14T07:39:59;96430.73;;;13.07;86.13
72118;BME280;59992;47.490;8.736;2023-05-14T07:42:49;96429.96;;;13.13;84.93
72118;BME280;59992;47.490;8.736;2023-05-14T07:45:40;96431.58;;;13.17;84.46
72118;BME280;59992;47.490;8.736;2023-05-14T07:48:30;96430.13;;;13.24;84.19
72118;BME280;59992;47.490;8.736;2023-05-14T07:51:20;96428.45;;;13.35;84.54
72118;BME280;59992;47.490;8.736;2023-05-14T07:54:11;96426.79;;;13.44;83.82
72118;BME280;59992;47.490;8.736;2023-05-14T07:57:00;96428.77;;;13.48;83.29
72118;BME280;59992;47.490;8.736;2023-05-14T07:59:51;96431.56;;;13.49;84.15
72118;BME280;59992;47.490;8.736;2023-05-14T08:02:41;96431.80;;;13.48;84.08
72118;BME280;59992;47.490;8.736;2023-05-14T08:05:31;96433.16;;;13.55;84.24
72118;BME280;59992;47.490;8.736;2023-05-14T08:08:22;96427.67;;;13.63;83.33
72118;BME280;59992;47.490;8.736;2023-05-14T08:11:12;96424.40;;;13.72;84.94
72118;BME280;59992;47.490;8.736;2023-05-14T08:14:02;96425.65;;;13.89;83.39
72118;BME280;59992;47.490;8.736;2023-05-14T08:16:52;96424.46;;;14.05;81.60
72118;BME280;59992;47.490;8.736;2023-05-14T08:19:43;96417.80;;;14.21;82.16
72118;BME280;59992;47.490;8.736;2023-05-14T08:22:33;96416.77;;;14.36;81.21
72118;BME280;59992;47.490;8.736;2023-05-14T08:25:23;96413.34;;;14.56;81.14
72118;BME280;59992;47.490;8.736;2023-05-14T08:28:13;96414.28;;;14.66;80.14
72118;BME280;59992;47.490;8.736;2023-05-14T08:31:04;96412.48;;;14.74;77.99
72118;BME280;59992;47.490;8.736;2023-05-14T08:33:54;96414.75;;;14.78;78.45
72118;BME280;59992;47.490;8.736;2023-05-14T08:36:44;96414.92;;;14.87;79.64
72118;BME280;59992;47.490;8.736;2023-05-14T08:39:34;96413.09;;;14.96;77.80
72118;BME280;59992;47.490;8.736;2023-05-14T08:42:24;96411.83;;;15.03;77.59
72118;BME280;59992;47.490;8.736;2023-05-14T08:45:19;96405.39;;;15.09;78.14
72118;BME280;59992;47.490;8.736;2023-05-14T08:48:12;96406.70;;;15.06;76.63
72118;BME280;59992;47.490;8.736;2023-05-14T08:51:07;96412.55;;;14.99;78.31
72118;BME280;59992;47.490;8.736;2023-05-14T08:53:59;96406.84;;;14.85;78.56
72118;BME280;59992;47.490;8.736;2023-05-14T08:56:51;96407.70;;;14.69;79.78
72118;BME280;59992;47.490;8.736;2023-05-14T08:59:42;96411.56;;;14.59;79.32
72118;BME280;59992;47.490;8.736;2023-05-14T09:02:33;96408.89;;;14.45;79.09
72118;BME280;59992;47.490;8.736;2023-05-14T09:05:24;96404.14;;;14.28;80.98
72118;BME280;59992;47.490;8.736;2023-05-14T09:08:14;96410.05;;;14.16;80.89
72118;BME280;59992;47.490;8.736;2023-05-14T09:11:05;96411.83;;;14.07;81.65
72118;BME280;59992;47.490;8.736;2023-05-14T09:13:55;96403.65;;;13.95;82.86
72118;BME280;59992;47.490;8.736;2023-05-14T09:16:47;96410.67;;;13.83;83.33
72118;BME280;59992;47.490;8.736;2023-05-14T09:19:39;96405.44;;;13.76;83.37
72118;BME280;59992;47.490;8.736;2023-05-14T09:22:29;96402.55;;;13.75;82.70
72118;BME280;59992;47.490;8.736;2023-05-14T09:25:27;96405.13;;;13.77;85.18
72118;BME280;59992;47.490;8.736;2023-05-14T09:28:20;96399.79;;;13.81;85.27
72118;BME280;59992;47.490;8.736;2023-05-14T09:31:12;96405.39;;;13.93;85.25
72118;BME280;59992;47.490;8.736;2023-05-14T09:34:02;96403.83;;;14.05;86.21
72118;BME280;59992;47.490;8.736;2023-05-14T09:36:55;96404.92;;;14.23;86.14
72118;BME280;59992;47.490;8.736;2023-05-14T09:39:46;96397.02;;;14.43;85.60
72118;BME280;59992;47.490;8.736;2023-05-14T09:42:36;96400.11;;;14.63;86.29
72118;BME280;59992;47.490;8.736;2023-05-14T09:45:27;96389.19;;;14.80;83.40
72118;BME280;59992;47.490;8.736;2023-05-14T09:48:19;96388.52;;;15.10;82.44
72118;BME280;59992;47.490;8.736;2023-05-14T09:51:11;96387.10;;;15.34;81.55
72118;BME280;59992;47.490;8.736;2023-05-14T09:54:02;96385.54;;;15.58;79.69
72118;BME280;59992;47.490;8.736;2023-05-14T09:56:53;96386.50;;;15.85;79.43
72118;BME280;59992;47.490;8.736;2023-05-14T09:59:44;96384.71;;;16.01;78.78
72118;BME280;59992;47.490;8.736;2023-05-14T10:02:36;96381.45;;;16.13;79.13
72118;BME280;59992;47.490;8.736;2023-05-14T10:05:29;96376.25;;;16.26;77.69
72118;BME280;59992;47.490;8.736;2023-05-14T10:08:23;96374.80;;;16.32;77.27
72118;BME280;59992;47.490;8.736;2023-05-14T10:11:17;96377.90;;;16.48;77.80
72118;BME280;59992;47.490;8.736;2023-05-14T10:14:12;96373.04;;;16.69;75.98
72118;BME280;59992;47.490;8.736;2023-05-14T10:17:06;96367.07;;;16.85;73.88
72118;BME280;59992;47.490;8.736;2023-05-14T10:20:08;96364.84;;;17.05;72.80
72118;BME280;59992;47.490;8.736;2023-05-14T10:23:03;96366.38;;;17.19;72.07
72118;BME280;59992;47.490;8.736;2023-05-14T10:25:55;96365.79;;;17.13;71.11
72118;BME280;59992;47.490;8.736;2023-05-14T10:28:47;96357.67;;;17.03;69.68
72118;BME280;59992;47.490;8.736;2023-05-14T10:31:49;96353.94;;;17.03;73.28
72118;BME280;59992;47.490;8.736;2023-05-14T10:34:42;96362.87;;;17.14;74.20
72118;BME280;59992;47.490;8.736;2023-05-14T10:37:32;96359.00;;;17.07;68.79
72118;BME280;59992;47.490;8.736;2023-05-14T10:40:24;96357.02;;;16.97;70.75
72118;BME280;59992;47.490;8.736;2023-05-14T10:43:15;96359.33;;;16.81;70.56
72118;BME280;59992;47.490;8.736;2023-05-14T10:46:07;96363.42;;;16.56;70.18
72118;BME280;59992;47.490;8.736;2023-05-14T10:48:58;96359.88;;;16.33;70.95
72118;BME280;59992;47.490;8.736;2023-05-14T10:51:49;96360.92;;;16.16;71.08
72118;BME280;59992;47.490;8.736;2023-05-14T10:54:46;96356.55;;;15.99;73.41
72118;BME280;59992;47.490;8.736;2023-05-14T10:57:38;96356.52;;;15.82;73.57
72118;BME280;59992;47.490;8.736;2023-05-14T11:00:29;96359.64;;;15.68;73.99
72118;BME280;59992;47.490;8.736;2023-05-14T11:03:22;96362.30;;;15.54;75.31
72118;BME280;59992;47.490;8.736;2023-05-14T11:06:13;96354.35;;;15.37;75.84
72118;BME280;59992;47.490;8.736;2023-05-14T11:09:05;96353.69;;;15.16;76.21
72118;BME280;59992;47.490;8.736;2023-05-14T11:11:55;96346.20;;;14.87;78.81
72118;BME280;59992;47.490;8.736;2023-05-14T11:14:47;96342.27;;;14.72;80.52
72118;BME280;59992;47.490;8.736;2023-05-14T11:17:39;96340.48;;;14.66;78.19
72118;BME280;59992;47.490;8.736;2023-05-14T11:20:30;96341.08;;;14.69;79.15
72118;BME280;59992;47.490;8.736;2023-05-14T11:23:23;96335.96;;;14.82;83.22
72118;BME280;59992;47.490;8.736;2023-05-14T11:26:14;96334.09;;;14.95;82.90
72118;BME280;59992;47.490;8.736;2023-05-14T11:29:05;96328.69;;;15.05;81.25
72118;BME280;59992;47.490;8.736;2023-05-14T11:31:55;96323.09;;;15.16;83.01
72118;BME280;59992;47.490;8.736;2023-05-14T11:34:46;96322.56;;;15.32;80.59
72118;BME280;59992;47.490;8.736;2023-05-14T11:37:37;96326.92;;;15.59;81.73
72118;BME280;59992;47.490;8.736;2023-05-14T11:40:27;96330.57;;;15.80;82.94
72118;BME280;59992;47.490;8.736;2023-05-14T11:43:18;96321.10;;;16.00;79.68
72118;BME280;59992;47.490;8.736;2023-05-14T11:46:17;96327.08;;;16.16;74.88
72118;BME280;59992;47.490;8.736;2023-05-14T11:49:08;96323.10;;;16.10;74.80
72118;BME280;59992;47.490;8.736;2023-05-14T11:51:59;96325.80;;;15.90;78.20
72118;BME280;59992;47.490;8.736;2023-05-14T11:54:50;96323.11;;;15.64;76.30
72118;BME280;59992;47.490;8.736;2023-05-14T11:57:40;96315.90;;;15.37;75.26
72118;BME280;59992;47.490;8.736;2023-05-14T12:00:31;96316.45;;;15.17;76.86
72118;BME280;59992;47.490;8.736;2023-05-14T12:03:22;96312.54;;;15.11;77.23
72118;BME280;59992;47.490;8.736;2023-05-14T12:06:14;96312.69;;;15.11;78.25
72118;BME280;59992;47.490;8.736;2023-05-14T12:09:08;96302.27;;;15.06;79.81
72118;BME280;59992;47.490;8.736;2023-05-14T12:12:08;96312.80;;;15.07;82.34
72118;BME280;59992;47.490;8.736;2023-05-14T12:14:59;96311.06;;;15.05;82.32
72118;BME280;59992;47.490;8.736;2023-05-14T12:17:53;96310.55;;;14.94;82.17
72118;BME280;59992;47.490;8.736;2023-05-14T12:20:48;96314.36;;;14.85;81.81
72118;BME280;59992;47.490;8.736;2023-05-14T12:23:39;96313.40;;;14.80;82.61
72118;BME280;59992;47.490;8.736;2023-05-14T12:26:32;96312.81;;;14.66;81.84
72118;BME280;59992;47.490;8.736;2023-05-14T12:29:24;96309.90;;;14.58;80.73
72118;BME280;59992;47.490;8.736;2023-05-14T12:32:15;96305.03;;;14.44;84.80
72118;BME280;59992;47.490;8.736;2023-05-14T12:35:07;96296.45;;;14.38;84.67
72118;BME280;59992;47.490;8.736;2023-05-14T12:37:57;96294.02;;;14.39;84.61
72118;BME280;59992;47.490;8.736;2023-05-14T12:40:48;96291.45;;;14.46;86.03
72118;BME280;59992;47.490;8.736;2023-05-14T12:43:41;96285.81;;;14.58;86.40
72118;BME280;59992;47.490;8.736;2023-05-14T12:46:33;96284.25;;;14.74;86.11
72118;BME280;59992;47.490;8.736;2023-05-14T12:49:23;96281.19;;;14.94;85.86
72118;BME280;59992;47.490;8.736;2023-05-14T12:52:13;96278.04;;;15.05;84.65
72118;BME280;59992;47.490;8.736;2023-05-14T12:55:04;96278.10;;;15.22;85.10
72118;BME280;59992;47.490;8.736;2023-05-14T12:57:55;96276.47;;;15.41;83.08
72118;BME280;59992;47.490;8.736;2023-05-14T13:00:46;96272.37;;;15.61;83.45
72118;BME280;59992;47.490;8.736;2023-05-14T13:03:36;96268.38;;;15.71;81.40
72118;BME280;59992;47.490;8.736;2023-05-14T13:06:26;96268.36;;;15.83;79.86
72118;BME280;59992;47.490;8.736;2023-05-14T13:09:16;96266.05;;;15.97;79.05
72118;BME280;59992;47.490;8.736;2023-05-14T13:12:07;96258.36;;;16.12;79.42
72118;BME280;59992;47.490;8.736;2023-05-14T13:14:58;96249.49;;;16.29;80.47
72118;BME280;59992;47.490;8.736;2023-05-14T13:17:48;96246.88;;;16.46;78.59
72118;BME280;59992;47.490;8.736;2023-05-14T13:20:39;96246.77;;;16.69;80.37
72118;BME280;59992;47.490;8.736;2023-05-14T13:23:29;96246.54;;;16.87;77.88
72118;BME280;59992;47.490;8.736;2023-05-14T13:26:20;96237.88;;;16.84;75.78
72118;BME280;59992;47.490;8.736;2023-05-14T13:29:10;96239.77;;;16.89;76.44
72118;BME280;59992;47.490;8.736;2023-05-14T13:32:01;96242.50;;;16.79;75.63
72118;BME280;59992;47.490;8.736;2023-05-14T13:34:51;96244.48;;;16.64;77.65
72118;BME280;59992;47.490;8.736;2023-05-14T13:37:43;96240.36;;;16.48;77.85
72118;BME280;59992;47.490;8.736;2023-05-14T13:40:33;96239.72;;;16.39;77.58
72118;BME280;59992;47.490;8.736;2023-05-14T13:43:23;96239.27;;;16.44;78.62
72118;BME280;59992;47.490;8.736;2023-05-14T13:46:14;96239.58;;;16.49;79.37
72118;BME280;59992;47.490;8.736;2023-05-14T13:49:04;96229.78;;;16.56;79.65
72118;BME280;59992;47.490;8.736;2023-05-14T13:51:54;96228.64;;;16.65;77.90
72118;BME280;59992;47.490;8.736;2023-05-14T13:54:45;96226.83;;;16.78;77.32
72118;BME280;59992;47.490;8.736;2023-05-14T13:57:35;96231.19;;;16.86;75.40
72118;BME280;59992;47.490;8.736;2023-05-14T14:00:28;96229.80;;;16.91;75.94
72118;BME280;59992;47.490;8.736;2023-05-14T14:03:19;96228.04;;;16.92;75.90
72118;BME280;59992;47.490;8.736;2023-05-14T14:06:10;96223.59;;;16.88;75.80
72118;BME280;59992;47.490;8.736;2023-05-14T14:09:01;96220.11;;;16.85;76.91
72118;BME280;59992;47.490;8.736;2023-05-14T14:11:52;96223.77;;;16.82;77.74
72118;BME280;59992;47.490;8.736;2023-05-14T14:14:43;96220.79;;;16.77;75.92
72118;BME280;59992;47.490;8.736;2023-05-14T14:17:33;96216.81;;;16.73;76.11
72118;BME280;59992;47.490;8.736;2023-05-14T14:20:24;96208.91;;;16.74;76.49
72118;BME280;59992;47.490;8.736;2023-05-14T14:23:14;96213.16;;;16.76;77.04
72118;BME280;59992;47.490;8.736;2023-05-14T14:26:05;96212.63;;;16.81;77.35
72118;BME280;59992;47.490;8.736;2023-05-14T14:28:55;96218.45;;;16.81;75.77
72118;BME280;59992;47.490;8.736;2023-05-14T14:31:46;96218.58;;;16.63;75.54
72118;BME280;59992;47.490;8.736;2023-05-14T14:34:37;96208.54;;;16.39;76.42
72118;BME280;59992;47.490;8.736;2023-05-14T14:37:27;96215.30;;;16.21;77.20
72118;BME280;59992;47.490;8.736;2023-05-14T14:40:17;96217.91;;;15.93;80.09
72118;BME280;59992;47.490;8.736;2023-05-14T14:43:08;96216.28;;;15.66;79.85
72118;BME280;59992;47.490;8.736;2023-05-14T14:45:58;96215.88;;;15.50;82.70
72118;BME280;59992;47.490;8.736;2023-05-14T14:48:48;96215.27;;;15.39;82.45
72118;BME280;59992;47.490;8.736;2023-05-14T14:51:39;96218.48;;;15.24;81.23
72118;BME280;59992;47.490;8.736;2023-05-14T14:54:29;96218.21;;;15.15;82.50
72118;BME280;59992;47.490;8.736;2023-05-14T14:57:20;96214.89;;;15.11;81.85
72118;BME280;59992;47.490;8.736;2023-05-14T15:00:12;96216.92;;;15.14;80.84
72118;BME280;59992;47.490;8.736;2023-05-14T15:03:03;96221.64;;;15.14;81.74
72118;BME280;59992;47.490;8.736;2023-05-14T15:05:53;96221.02;;;15.16;81.81
72118;BME280;59992;47.490;8.736;2023-05-14T15:08:43;96218.73;;;15.15;83.18